Time;durP1;ratioP1;P1;durP2;ratioP2;P2;SDS_P1;SDS_P2;PMS_P1;PMS_P2;Temp;Humidity;BMP_temperature;BMP_pressure;BME280_temperature;BME280_humidity;BME280_pressure;Samples;Min_cycle;Max_cycle;Signal;HPM_P1;HPM_P2
2022/08/11 00:00:36;;;;;;;41.23;38.90;;;;;;;19.59;100.00;102302.86;1979730;72;24157;-74
2022/08/11 00:03:09;;;;;;;40.80;38.50;;;;;;;19.48;100.00;102299.38;1979827;72;24631;-74
2022/08/11 00:05:47;;;;;;;40.83;38.43;;;;;;;19.37;100.00;102298.72;1979892;72;24184;-74
2022/08/11 00:08:24;;;;;;;40.07;37.67;;;;;;;19.42;100.00;102294.41;1979873;72;24191;-74
2022/08/11 00:10:56;;;;;;;39.43;37.23;;;;;;;19.48;100.00;102296.56;1979828;72;24557;-74
2022/08/11 00:13:34;;;;;;;38.93;36.63;;;;;;;19.53;100.00;102298.73;1979861;72;24215;-74
2022/08/11 00:16:06;;;;;;;38.50;36.20;;;;;;;19.43;100.00;102292.42;1979864;72;24154;-74
2022/08/11 00:18:42;;;;;;;37.33;35.23;;;;;;;19.29;100.00;102296.61;1978712;72;24159;-73
2022/08/11 00:21:13;;;;;;;38.60;36.40;;;;;;;19.22;100.00;102302.36;1979853;72;24160;-74
2022/08/11 00:23:46;;;;;;;39.60;37.40;;;;;;;19.22;100.00;102306.59;1979775;72;26710;-73
2022/08/11 00:26:17;;;;;;;39.73;37.53;;;;;;;19.20;100.00;102308.89;1944900;74;24097;-73
2022/08/11 00:28:50;;;;;;;39.63;37.50;;;;;;;19.26;100.00;102307.07;1944937;73;24132;-74
2022/08/11 00:31:25;;;;;;;41.63;39.23;;;;;;;19.14;100.00;102305.31;1944926;74;26397;-74
2022/08/11 00:33:58;;;;;;;40.53;38.03;;;;;;;18.97;100.00;102308.70;1979952;72;24822;-73
2022/08/11 00:36:31;;;;;;;40.90;38.50;;;;;;;18.91;100.00;102312.72;1944823;74;24185;-73
2022/08/11 00:39:07;;;;;;;41.47;38.97;;;;;;;18.96;100.00;102312.65;1922094;74;24202;-73
2022/08/11 00:41:41;;;;;;;42.77;40.33;;;;;;;18.97;100.00;102310.11;1979930;72;24225;-73
2022/08/11 00:44:34;;;;;;;41.60;39.30;;;;;;;18.95;100.00;102308.75;1979833;72;24343;-73
2022/08/11 00:47:16;;;;;;;43.03;40.63;;;;;;;18.91;100.00;102307.09;1979960;72;24128;-73
2022/08/11 00:50:03;;;;;;;41.37;39.17;;;;;;;18.90;100.00;102304.03;1945003;72;24194;-73
2022/08/11 00:56:36;;;;;;;43.03;40.53;;;;;;;18.78;100.00;102287.34;2058133;69;25948;-74
2022/08/11 00:59:41;;;;;;;45.73;43.23;;;;;;;18.79;100.00;102296.03;1979982;72;24132;-74
2022/08/11 01:02:18;;;;;;;48.67;46.03;;;;;;;18.84;100.00;102292.58;1924598;74;24170;-72
2022/08/11 01:05:27;;;;;;;47.63;45.03;;;;;;;18.70;100.00;102289.45;1948094;73;24463;-72
2022/08/11 01:08:35;;;;;;;49.57;46.80;;;;;;;18.47;100.00;102284.96;1948204;73;24214;-74
2022/08/11 01:11:56;;;;;;;51.63;48.83;;;;;;;18.32;100.00;102289.38;1947802;73;24238;-74
2022/08/11 01:15:05;;;;;;;52.00;49.20;;;;;;;18.20;100.00;102287.58;1890587;73;24210;-72
2022/08/11 01:18:15;;;;;;;53.07;49.87;;;;;;;18.19;100.00;102288.72;1948048;73;24194;-73
2022/08/11 01:21:29;;;;;;;53.00;50.13;;;;;;;18.03;100.00;102289.49;1947972;73;26311;-73
2022/08/11 01:24:44;;;;;;;51.77;49.07;;;;;;;18.12;100.00;102281.22;1899564;73;27314;-73
2022/08/11 01:27:51;;;;;;;53.63;50.83;;;;;;;18.14;100.00;102278.96;1947906;73;24137;-72
2022/08/11 01:30:38;;;;;;;52.80;49.97;;;;;;;18.05;100.00;102267.55;1944538;73;24689;-73
2022/08/11 01:34:09;;;;;;;51.37;48.67;;;;;;;18.03;100.00;102281.63;1947197;73;24782;-73
2022/08/11 01:37:20;;;;;;;54.37;51.47;;;;;;;18.16;100.00;102280.89;1948056;73;24152;-73
2022/08/11 01:46:48;;;;;;;56.50;53.30;;;;;;;17.95;100.00;102277.51;2024073;71;24143;-73
2022/08/11 01:52:24;;;;;;;54.20;51.30;;;;;;;17.72;100.00;102274.13;2057960;69;25992;-73
2022/08/11 01:54:58;;;;;;;59.13;55.83;;;;;;;17.72;100.00;102269.91;1979831;72;24661;-73
2022/08/11 01:57:33;;;;;;;59.40;56.20;;;;;;;17.72;100.00;102276.93;1944054;73;24174;-73
2022/08/11 02:00:10;;;;;;;62.73;59.17;;;;;;;17.61;100.00;102273.98;1983726;72;24159;-73
2022/08/11 02:02:52;;;;;;;62.27;58.87;;;;;;;17.46;100.00;102273.53;1979983;72;24163;-73
2022/08/11 02:05:31;;;;;;;63.43;60.03;;;;;;;17.36;100.00;102275.62;1979019;72;24755;-73
2022/08/11 02:08:05;;;;;;;64.67;61.27;;;;;;;17.28;100.00;102280.73;1976912;72;24172;-73
2022/08/11 02:13:35;;;;;;;61.40;58.10;;;;;;;17.09;100.00;102278.96;1979909;72;24169;-72
2022/08/11 02:16:15;;;;;;;61.47;57.97;;;;;;;17.08;100.00;102278.12;1944755;74;24165;-73
2022/08/11 02:24:36;;;;;;;61.33;57.87;;;;;;;17.21;100.00;102278.84;1948126;73;24238;-73
2022/08/11 02:27:09;;;;;;;62.30;58.70;;;;;;;17.26;100.00;102271.78;1948060;73;25394;-73
2022/08/11 02:29:44;;;;;;;60.90;57.20;;;;;;;17.24;100.00;102273.22;1947888;73;26692;-73
2022/08/11 02:35:14;;;;;;;60.97;57.70;;;;;;;17.18;100.00;102268.77;1848387;77;24199;-73
2022/08/11 02:37:51;;;;;;;63.67;60.17;;;;;;;17.25;100.00;102270.09;1854625;77;26316;-73
2022/08/11 02:40:30;;;;;;;64.67;60.97;;;;;;;17.16;100.00;102271.86;1842943;78;26728;-73
2022/08/11 02:43:11;;;;;;;63.43;59.93;;;;;;;16.99;100.00;102268.65;1843092;78;24678;-73
2022/08/11 02:45:55;;;;;;;63.77;59.80;;;;;;;17.04;100.00;102264.96;1842664;78;24184;-73
2022/08/11 02:51:37;;;;;;;62.17;58.57;;;;;;;16.97;100.00;102269.52;1874251;76;24219;-72
2022/08/11 02:54:14;;;;;;;62.97;59.17;;;;;;;16.69;100.00;102267.48;1873367;76;24654;-72
2022/08/11 02:56:51;;;;;;;62.87;59.17;;;;;;;16.70;100.00;102264.96;1874129;76;24281;-73
2022/08/11 02:59:51;;;;;;;61.47;57.97;;;;;;;16.76;100.00;102269.42;1874324;76;27354;-72
2022/08/11 03:02:34;;;;;;;61.57;58.13;;;;;;;16.83;100.00;102265.70;1874019;76;26282;-74
2022/08/11 03:05:10;;;;;;;62.03;58.63;;;;;;;17.05;100.00;102262.44;1872745;76;24191;-74
2022/08/11 03:07:48;;;;;;;62.80;59.17;;;;;;;17.16;100.00;102257.82;1873216;76;24186;-73
2022/08/11 03:10:23;;;;;;;61.47;58.00;;;;;;;17.03;100.00;102258.50;1873563;76;24180;-73
2022/08/11 03:18:40;;;;;;;62.47;58.53;;;;;;;17.09;100.00;102258.74;1873799;76;24828;-73
2022/08/11 03:21:15;;;;;;;61.07;57.63;;;;;;;16.97;100.00;102259.70;1873891;76;24272;-73
2022/08/11 03:23:50;;;;;;;59.87;56.27;;;;;;;17.06;100.00;102258.50;1873705;76;24179;-73
2022/08/11 03:26:28;;;;;;;61.57;57.97;;;;;;;17.12;100.00;102261.52;1873418;76;24207;-72
2022/08/11 03:29:06;;;;;;;61.93;58.23;;;;;;;16.95;100.00;102263.35;1873843;76;24221;-72
2022/08/11 03:34:39;;;;;;;63.53;59.73;;;;;;;16.70;100.00;102255.98;2050148;69;25969;-73
2022/08/11 03:43:57;;;;;;;62.40;58.73;;;;;;;16.72;100.00;102257.95;1957400;72;24695;-74
2022/08/11 03:46:38;;;;;;;64.30;60.40;;;;;;;16.62;100.00;102258.57;1965761;73;24230;-74
2022/08/11 03:52:18;;;;;;;62.83;59.03;;;;;;;16.50;100.00;102258.07;2058325;69;28497;-71
2022/08/11 03:54:55;;;;;;;63.70;59.83;;;;;;;16.47;100.00;102258.09;2012023;69;26820;-71
2022/08/11 03:57:59;;;;;;;62.90;59.00;;;;;;;16.45;100.00;102253.33;1919630;73;26743;-71
2022/08/11 04:01:04;;;;;;;64.33;60.43;;;;;;;16.35;100.00;102239.36;1971517;71;939171;-71
2022/08/11 04:03:59;;;;;;;63.73;59.90;;;;;;;16.41;100.00;102245.22;1848087;77;26785;-72
2022/08/11 04:07:13;;;;;;;64.17;60.37;;;;;;;16.34;100.00;102243.32;1846335;77;26628;-72
2022/08/11 04:17:52;;;;;;;60.43;56.83;;;;;;;16.38;100.00;102229.83;2058139;69;28004;-71
2022/08/11 04:20:45;;;;;;;64.37;60.47;;;;;;;16.27;100.00;102234.37;2024021;70;26357;-73
2022/08/11 04:27:20;;;;;;;62.93;59.10;;;;;;;16.46;100.00;102224.72;2058063;69;26081;-73
2022/08/11 04:30:13;;;;;;;62.60;58.80;;;;;;;16.44;100.00;102229.20;2024065;71;26198;-72
2022/08/11 04:33:04;;;;;;;62.10;58.40;;;;;;;16.49;100.00;102224.97;2024073;70;26701;-72
2022/08/11 04:35:42;;;;;;;61.77;57.80;;;;;;;16.27;100.00;102222.59;2023267;70;26623;-72
2022/08/11 04:38:47;;;;;;;64.10;60.20;;;;;;;16.44;100.00;102226.96;2024182;70;24577;-72
2022/08/11 04:45:02;;;;;;;63.37;59.47;;;;;;;16.33;100.00;102224.81;1925693;74;26349;-73
2022/08/11 05:03:36;;;;;;;63.47;59.57;;;;;;;16.49;100.00;102216.55;2024204;71;26225;-72
2022/08/11 05:06:46;;;;;;;61.77;57.87;;;;;;;16.49;100.00;102216.55;2007203;71;24579;-72
2022/08/11 05:09:31;;;;;;;62.73;58.90;;;;;;;16.50;100.00;102221.05;1985600;71;26727;-72
2022/08/11 05:12:28;;;;;;;59.80;55.97;;;;;;;16.53;100.00;102227.46;2023800;70;26761;-73
2022/08/11 05:35:29;;;;;;;57.63;53.87;;;;;;;16.39;100.00;102239.05;1948187;73;26249;-71
2022/08/11 05:58:04;;;;;;;60.70;56.63;;;;;;;16.88;100.00;102250.80;1943256;74;24650;-72
2022/08/11 06:00:44;;;;;;;61.10;56.53;;;;;;;16.92;100.00;102249.08;1981963;72;24158;-72
2022/08/11 06:03:23;;;;;;;61.70;57.43;;;;;;;17.04;100.00;102236.32;1943126;74;24256;-72
2022/08/11 06:05:54;;;;;;;61.23;57.03;;;;;;;17.37;100.00;102239.39;1943251;74;24591;-72
2022/08/11 06:08:31;;;;;;;61.03;56.60;;;;;;;17.37;100.00;102239.39;1981164;72;24216;-72
2022/08/11 06:11:06;;;;;;;62.00;57.67;;;;;;;17.51;100.00;102241.17;1942545;74;24180;-72
2022/08/11 06:13:39;;;;;;;62.07;58.03;;;;;;;17.59;100.00;102241.11;1981244;72;24151;-72
2022/08/11 06:16:11;;;;;;;60.20;56.10;;;;;;;17.51;100.00;102244.55;1942277;74;26759;-72
2022/08/11 06:18:47;;;;;;;60.97;56.50;;;;;;;17.60;100.00;102245.60;1981279;72;24257;-72
2022/08/11 06:21:18;;;;;;;61.20;56.80;;;;;;;17.67;100.00;102251.13;1942605;74;26823;-73
2022/08/11 06:23:49;;;;;;;61.93;57.50;;;;;;;17.83;100.00;102234.93;1981271;72;26236;-72
2022/08/11 06:26:20;;;;;;;62.10;57.87;;;;;;;17.80;100.00;102245.34;1942480;74;24167;-72
2022/08/11 06:28:51;;;;;;;62.73;58.60;;;;;;;17.93;100.00;102236.19;1942634;73;24172;-72
2022/08/11 06:31:23;;;;;;;64.23;59.67;;;;;;;17.97;100.00;102236.45;1942577;74;26638;-72
2022/08/11 06:34:00;;;;;;;64.30;59.70;;;;;;;17.99;100.00;102238.38;1981282;72;24159;-72
2022/08/11 06:36:34;;;;;;;65.30;61.07;;;;;;;18.09;100.00;102233.47;1942503;74;24175;-72
2022/08/11 06:39:09;;;;;;;63.97;59.60;;;;;;;18.14;100.00;102238.18;1981220;72;24834;-72
2022/08/11 06:41:43;;;;;;;62.80;58.60;;;;;;;18.16;100.00;102228.29;1942505;74;26827;-72
2022/08/11 06:44:31;;;;;;;65.40;61.20;;;;;;;18.25;100.00;102232.66;1942790;73;24140;-73
2022/08/11 06:47:09;;;;;;;65.27;61.27;;;;;;;18.39;100.00;102235.56;1942705;74;24767;-73
2022/08/11 06:52:34;;;;;;;65.03;60.67;;;;;;;18.68;100.00;102231.20;1942776;74;24289;-72
2022/08/11 06:55:10;;;;;;;64.73;60.47;;;;;;;18.74;100.00;102227.17;1981475;72;24178;-73
2022/08/11 07:00:33;;;;;;;66.83;62.70;;;;;;;18.94;100.00;102230.47;1981474;72;24154;-73
2022/08/11 07:03:08;;;;;;;65.07;60.77;;;;;;;18.92;100.00;102223.45;1942488;74;24600;-73
2022/08/11 07:05:44;;;;;;;63.87;59.47;;;;;;;18.98;100.00;102227.30;1981326;72;24200;-73
2022/08/11 07:30:28;;;;;;;69.40;65.03;;;;;;;19.96;100.00;102220.88;2012920;70;32352;-71
2022/08/11 07:36:00;;;;;;;70.77;66.47;;;;;;;20.16;100.00;102229.45;2059273;69;26018;-70
2022/08/11 07:38:43;;;;;;;71.93;67.50;;;;;;;20.11;100.00;102231.00;1936461;73;24258;-71
2022/08/11 07:41:14;;;;;;;71.00;66.60;;;;;;;20.43;100.00;102232.25;2014986;71;24241;-71
2022/08/11 07:43:48;;;;;;;67.93;63.60;;;;;;;20.37;100.00;102228.70;2014996;71;24163;-72
2022/08/11 07:54:46;;;;;;;65.50;61.40;;;;;;;21.33;100.00;102229.11;1979020;72;24305;-71
2022/08/11 08:19:52;;;;;;;58.13;54.53;;;;;;;22.76;100.00;102219.42;1979017;72;24198;-73
2022/08/11 08:22:23;;;;;;;57.20;53.92;;;;;;;22.81;100.00;102212.14;1978692;72;24238;-73
2022/08/11 08:24:55;;;;;;;55.30;51.92;;;;;;;23.14;100.00;102224.61;1978519;72;24380;-73
2022/08/11 08:27:26;;;;;;;54.63;51.40;;;;;;;23.17;100.00;102219.42;1978583;72;24123;-73
2022/08/11 08:32:45;;;;;;;48.83;45.63;;;;;;;23.30;100.00;102212.72;1978606;72;24295;-70
2022/08/11 08:35:16;;;;;;;50.23;47.25;;;;;;;23.41;100.00;102212.58;1978609;71;24883;-72
2022/08/11 08:37:48;;;;;;;49.83;46.92;;;;;;;23.76;100.00;102217.55;1978712;72;24211;-71
2022/08/11 08:40:19;;;;;;;49.20;46.15;;;;;;;23.92;100.00;102212.95;1908584;74;24249;-71
2022/08/11 08:42:53;;;;;;;46.53;43.52;;;;;;;23.94;100.00;102208.61;1978686;72;24188;-72
2022/08/11 08:45:26;;;;;;;47.83;44.93;;;;;;;23.93;100.00;102207.52;1908600;74;24274;-72
2022/08/11 08:53:51;;;;;;;43.42;40.67;;;;;;;23.84;100.00;102212.41;1979886;72;24169;-77
2022/08/11 08:56:26;;;;;;;43.13;40.43;;;;;;;24.09;100.00;102209.20;1979646;72;24628;-77
2022/08/11 08:59:01;;;;;;;43.33;40.60;;;;;;;24.12;100.00;102203.66;1979947;72;24233;-77
2022/08/11 09:01:34;;;;;;;42.80;40.00;;;;;;;24.13;100.00;102204.48;1980125;72;24626;-77
2022/08/11 09:04:07;;;;;;;41.95;39.25;;;;;;;24.27;100.00;102204.48;1980241;72;24121;-76
2022/08/11 09:06:39;;;;;;;39.58;36.90;;;;;;;24.34;100.00;102197.68;1980221;72;24258;-76
2022/08/11 09:09:11;;;;;;;38.98;36.30;;;;;;;24.47;100.00;102195.73;1980335;72;24631;-75
2022/08/11 09:41:47;;;;;;;29.23;27.32;;;;;;;25.27;100.00;102177.80;1980294;72;24122;-77
2022/08/11 09:47:14;;;;;;;27.85;26.12;;;;;;;25.21;100.00;102170.07;1980242;72;24180;-78
2022/08/11 09:49:40;;;;;;;27.55;25.75;;;;;;;25.46;100.00;102169.50;1945173;72;24232;-77
2022/08/11 09:52:13;;;;;;;27.50;25.72;;;;;;;25.34;100.00;102166.06;1909707;75;24195;-77
2022/08/11 09:54:45;;;;;;;25.57;23.98;;;;;;;25.52;100.00;102158.73;1892997;76;24740;-77
2022/08/11 10:00:11;;;;;;;23.05;21.75;;;;;;;25.84;100.00;102156.39;1944998;74;24655;-77
2022/08/11 10:02:44;;;;;;;23.15;21.80;;;;;;;25.74;100.00;102155.44;1944512;74;24192;-77
2022/08/11 10:08:08;;;;;;;21.25;20.15;;;;;;;25.71;100.00;102154.73;1944702;73;24134;-77
2022/08/11 10:10:40;;;;;;;20.55;19.30;;;;;;;26.10;100.00;102151.72;1944424;73;24167;-77
2022/08/11 10:13:13;;;;;;;20.70;19.60;;;;;;;26.00;100.00;102147.93;1944503;74;24170;-77
2022/08/11 10:15:46;;;;;;;21.40;20.10;;;;;;;25.89;100.00;102149.00;1944557;74;24118;-77
2022/08/11 10:27:01;;;;;;;16.50;15.60;;;;;;;26.00;100.00;102143.66;1980313;72;24207;-78
2022/08/11 10:35:14;;;;;;;14.98;14.07;;;;;;;26.12;100.00;102136.50;1980257;72;24121;-78
2022/08/11 10:37:46;;;;;;;14.60;13.85;;;;;;;26.15;100.00;102137.20;1980213;72;24226;-78
2022/08/11 10:40:21;;;;;;;14.13;13.22;;;;;;;26.01;100.00;102133.34;1980295;72;25187;-78
2022/08/11 10:43:12;;;;;;;13.48;12.88;;;;;;;26.40;100.00;102123.14;1980295;72;24253;-77
2022/08/11 11:00:23;;;;;;;13.00;12.37;;;;;;;25.56;100.00;102123.55;2009405;70;25259;-77
2022/08/11 11:02:54;;;;;;;12.60;12.00;;;;;;;25.51;100.00;102127.18;1941330;73;25578;-77
2022/08/11 11:05:27;;;;;;;12.78;12.18;;;;;;;26.12;100.00;102119.41;1944328;73;24209;-76
2022/08/11 11:10:59;;;;;;;12.33;11.65;;;;;;;26.20;100.00;102106.48;2053705;69;27059;-76
2022/08/11 11:19:17;;;;;;;13.60;12.65;;;;;;;25.92;100.00;102107.02;2002597;70;25259;-77
2022/08/11 11:21:50;;;;;;;12.20;11.43;;;;;;;26.28;100.00;102102.66;2016018;71;24169;-76
2022/08/11 11:24:36;;;;;;;13.00;12.20;;;;;;;26.21;100.00;102100.20;1934004;73;26744;-77
2022/08/11 11:27:01;;;;;;;14.15;13.15;;;;;;;26.33;100.00;102107.27;2013423;70;24695;-76
2022/08/11 11:29:53;;;;;;;12.35;11.73;;;;;;;26.01;100.00;102103.44;1947077;73;24682;-76
2022/08/11 11:32:30;;;;;;;12.50;11.80;;;;;;;26.60;100.00;102100.73;1970832;72;24116;-76
2022/08/11 11:38:21;;;;;;;11.95;11.15;;;;;;;27.15;100.00;102095.54;2046904;69;26073;-76
2022/08/11 11:43:42;;;;;;;12.73;12.00;;;;;;;26.59;100.00;102096.81;2010646;70;24283;-76
2022/08/11 11:46:13;;;;;;;12.60;11.90;;;;;;;26.01;100.00;102094.90;1928432;72;25704;-76
2022/08/11 11:48:45;;;;;;;13.03;12.13;;;;;;;25.72;100.00;102093.16;1992151;71;24670;-76
2022/08/11 11:51:16;;;;;;;12.25;11.57;;;;;;;26.09;100.00;102095.94;1974085;72;26280;-76
2022/08/11 11:53:48;;;;;;;12.68;12.03;;;;;;;26.33;100.00;102085.06;1912101;75;25180;-77
2022/08/11 11:56:19;;;;;;;12.45;11.93;;;;;;;26.08;100.00;102089.41;1933455;74;25728;-77
2022/08/11 12:01:42;;;;;;;12.65;12.03;;;;;;;26.82;100.00;102083.63;1975223;72;24715;-76
2022/08/11 12:04:15;;;;;;;13.15;12.35;;;;;;;26.77;100.00;102083.06;1897611;74;24208;-77
2022/08/11 12:06:46;;;;;;;12.20;11.60;;;;;;;26.39;100.00;102078.76;1939517;73;24259;-77
2022/08/11 12:09:22;;;;;;;12.85;12.15;;;;;;;26.65;100.00;102070.55;1920379;72;24771;-76
2022/08/11 12:14:51;;;;;;;12.75;12.07;;;;;;;26.13;100.00;102065.54;2057918;68;26155;-75
2022/08/11 12:17:22;;;;;;;12.58;12.00;;;;;;;25.84;100.00;102074.63;1963315;71;24202;-75
2022/08/11 12:19:53;;;;;;;12.53;11.75;;;;;;;25.79;100.00;102072.05;1957278;71;25194;-75
2022/08/11 12:28:05;;;;;;;11.65;11.15;;;;;;;26.33;100.00;102053.73;1953531;71;24755;-75
2022/08/11 12:30:38;;;;;;;12.40;11.68;;;;;;;26.42;100.00;102048.70;1957664;71;24285;-75
2022/08/11 12:33:08;;;;;;;12.00;11.40;;;;;;;26.63;100.00;102047.27;1966367;71;25191;-76
2022/08/11 12:35:39;;;;;;;13.03;12.40;;;;;;;26.94;100.00;102045.08;1960930;71;24224;-75
2022/08/11 12:38:10;;;;;;;15.63;14.93;;;;;;;26.26;100.00;102042.38;1963698;73;24161;-75
2022/08/11 12:46:23;;;;;;;11.90;11.30;;;;;;;26.09;100.00;102021.89;1957954;71;25333;-75
2022/08/11 12:51:58;;;;;;;12.90;12.15;;;;;;;26.34;100.00;102029.75;2031304;69;26454;-75
2022/08/11 12:54:32;;;;;;;12.05;11.45;;;;;;;26.28;100.00;102026.33;2005827;71;25207;-74
2022/08/11 13:05:57;;;;;;;12.65;11.95;;;;;;;26.61;100.00;102007.51;1889786;76;24713;-75
2022/08/11 13:08:29;;;;;;;13.03;12.33;;;;;;;26.50;100.00;102010.06;1889538;76;24222;-74
2022/08/11 13:13:55;;;;;;;12.68;12.00;;;;;;;26.01;100.00;102005.20;1889749;76;24206;-74
2022/08/11 13:16:27;;;;;;;13.03;12.20;;;;;;;26.98;100.00;102003.20;1892880;76;24203;-74
2022/08/11 13:18:59;;;;;;;13.25;12.33;;;;;;;27.26;100.00;102000.20;1856303;77;25589;-75
2022/08/11 13:21:31;;;;;;;13.20;12.50;;;;;;;26.89;100.00;102001.14;1889798;76;24260;-75
2022/08/11 13:24:02;;;;;;;13.62;12.70;;;;;;;26.68;100.00;101994.27;1892634;75;24660;-74
2022/08/11 13:26:36;;;;;;;13.32;12.20;;;;;;;26.63;100.00;101983.13;1889548;76;25316;-73
2022/08/11 13:29:06;;;;;;;12.53;11.93;;;;;;;26.46;100.00;101987.76;1892658;76;24707;-74
2022/08/11 13:31:37;;;;;;;12.93;12.23;;;;;;;27.06;100.00;101975.09;1889588;76;24648;-74
2022/08/11 13:34:09;;;;;;;12.88;12.28;;;;;;;27.06;100.00;101979.96;1892702;75;24183;-74
2022/08/11 13:36:41;;;;;;;12.88;12.00;;;;;;;26.98;100.00;101983.24;1889470;76;24657;-74
2022/08/11 13:39:12;;;;;;;13.30;12.47;;;;;;;26.81;100.00;101977.06;1892612;75;24607;-74
2022/08/11 13:41:46;;;;;;;13.13;12.33;;;;;;;27.05;100.00;101970.58;1889462;76;24182;-73
2022/08/11 13:44:18;;;;;;;12.82;12.23;;;;;;;27.78;100.00;101965.54;1892733;76;24198;-73
2022/08/11 13:46:49;;;;;;;13.03;12.28;;;;;;;27.67;100.00;101965.09;1889491;76;24807;-71
2022/08/11 13:49:21;;;;;;;12.63;12.00;;;;;;;27.57;100.00;101960.80;1919843;74;25302;-71
2022/08/11 13:51:52;;;;;;;12.75;12.15;;;;;;;27.78;100.00;101962.68;1876550;76;24198;-71
2022/08/11 13:57:24;;;;;;;12.50;11.97;;;;;;;28.04;100.00;101959.97;2057850;69;25840;-71
2022/08/11 14:00:08;;;;;;;12.63;12.03;;;;;;;27.74;100.00;101960.95;2024047;71;24158;-71
2022/08/11 14:02:30;;;;;;;12.82;11.88;;;;;;;27.13;100.00;101959.55;2021800;70;25646;-71
2022/08/11 14:05:08;;;;;;;12.23;11.60;;;;;;;26.72;100.00;101959.55;1943207;73;24252;-71
2022/08/11 14:07:41;;;;;;;12.20;11.55;;;;;;;26.73;100.00;101952.66;1925704;74;24209;-71
2022/08/11 14:10:15;;;;;;;12.00;11.40;;;;;;;27.17;100.00;101955.36;1947987;73;25300;-71
2022/08/11 14:15:38;;;;;;;13.00;12.20;;;;;;;27.17;100.00;101956.78;1948033;73;24208;-72
2022/08/11 14:18:11;;;;;;;13.55;12.68;;;;;;;27.36;100.00;101953.16;1948081;73;25249;-71
2022/08/11 14:23:36;;;;;;;13.03;12.30;;;;;;;27.64;100.00;101942.38;1910395;73;24571;-71
2022/08/11 14:26:25;;;;;;;12.23;11.63;;;;;;;27.64;100.00;101950.95;1947888;73;24265;-72
2022/08/11 14:28:57;;;;;;;12.73;11.90;;;;;;;27.39;100.00;101953.83;1948104;73;24230;-71
2022/08/11 14:31:30;;;;;;;12.73;11.97;;;;;;;27.70;100.00;101942.92;1948035;73;25160;-72
2022/08/11 14:34:05;;;;;;;12.00;11.50;;;;;;;27.41;100.00;101937.17;1947934;73;24544;-72
2022/08/11 14:36:38;;;;;;;13.00;12.13;;;;;;;27.42;100.00;101931.70;1947885;73;24233;-72
2022/08/11 14:39:11;;;;;;;12.78;12.15;;;;;;;27.41;100.00;101930.86;1947993;73;24238;-72
2022/08/11 14:47:24;;;;;;;12.73;11.93;;;;;;;27.39;100.00;101931.83;1947987;73;25654;-72
2022/08/11 14:49:58;;;;;;;12.58;11.88;;;;;;;28.10;100.00;101921.95;1945029;73;24118;-72
2022/08/11 14:52:30;;;;;;;12.60;11.90;;;;;;;27.66;100.00;101916.33;1943063;74;24234;-72
2022/08/11 14:57:51;;;;;;;12.88;12.28;;;;;;;27.53;100.00;101914.22;1981801;72;24644;-72
2022/08/11 15:00:22;;;;;;;13.35;12.47;;;;;;;27.66;100.00;101917.16;1943252;74;25658;-74
2022/08/11 15:03:12;;;;;;;13.20;12.50;;;;;;;27.55;100.00;101906.12;1943442;74;24249;-73
2022/08/11 15:05:49;;;;;;;12.82;12.00;;;;;;;27.92;100.00;101911.58;1982174;72;24198;-71
2022/08/11 15:08:53;;;;;;;12.45;11.78;;;;;;;27.79;100.00;101907.83;1942584;74;25214;-71
2022/08/11 15:10:55;;;;;;;12.82;12.03;;;;;;;27.60;100.00;101909.48;1937339;74;25215;-72
2022/08/11 15:13:25;;;;;;;12.85;12.00;;;;;;;27.95;100.00;101898.55;1942747;74;25284;-72
2022/08/11 15:18:44;;;;;;;12.95;12.00;;;;;;;28.17;100.00;101900.65;1942738;74;24230;-72
2022/08/11 15:24:22;;;;;;;12.82;12.03;;;;;;;27.77;100.00;101898.20;1942668;74;24200;-73
2022/08/11 15:49:57;;;;;;;13.00;12.30;;;;;;;28.14;100.00;101887.73;2002558;70;25899;-72
2022/08/11 15:55:28;;;;;;;12.93;12.18;;;;;;;28.28;100.00;101881.65;2058219;69;25980;-70
2022/08/11 16:06:35;;;;;;;13.55;12.68;;;;;;;28.12;100.00;101881.55;1944978;74;24268;-72
2022/08/11 16:09:09;;;;;;;13.28;12.47;;;;;;;28.01;100.00;101877.06;1944729;74;25496;-70
2022/08/11 16:11:42;;;;;;;13.48;12.65;;;;;;;28.00;100.00;101871.11;1980172;72;24229;-70
2022/08/11 16:17:05;;;;;;;13.55;12.85;;;;;;;27.87;100.00;101874.75;1921952;74;24689;-71
2022/08/11 16:19:38;;;;;;;13.90;12.80;;;;;;;28.08;100.00;101867.17;1980036;72;25195;-70
2022/08/11 16:22:13;;;;;;;12.85;12.23;;;;;;;28.12;100.00;101875.24;1944860;74;24273;-71
2022/08/11 16:24:48;;;;;;;13.83;12.80;;;;;;;27.69;100.00;101878.45;1944848;74;24192;-71
2022/08/11 16:27:19;;;;;;;13.53;12.73;;;;;;;28.01;100.00;101873.59;1979992;72;24175;-72
2022/08/11 16:29:53;;;;;;;13.05;12.15;;;;;;;28.18;100.00;101866.59;1944881;74;25676;-73
2022/08/11 16:32:26;;;;;;;13.30;12.50;;;;;;;28.04;100.00;101870.58;1921693;74;24253;-72
2022/08/11 16:40:45;;;;;;;11.40;10.90;;;;;;;27.90;100.00;101878.86;1980165;72;24230;-70
2022/08/11 16:49:08;;;;;;;12.20;11.60;;;;;;;28.31;100.00;101880.91;1954482;72;24200;-71
2022/08/11 16:51:39;;;;;;;12.47;11.78;;;;;;;27.97;100.00;101874.73;1944941;74;24628;-71
2022/08/11 16:54:10;;;;;;;13.10;12.25;;;;;;;27.98;100.00;101870.05;1909270;75;24259;-72
2022/08/11 16:59:40;;;;;;;13.05;12.45;;;;;;;28.20;100.00;101876.19;2058082;69;27045;-72
2022/08/11 17:13:07;;;;;;;13.43;12.63;;;;;;;27.99;100.00;101878.85;2024177;71;24094;-72
2022/08/11 17:13:46;;;;;;;12.82;12.07;;;;;;;28.19;100.00;101857.42;2016656;70;30936;-70
2022/08/11 17:19:19;;;;;;;12.10;11.45;;;;;;;27.88;100.00;101851.30;2058011;69;25974;-70
2022/08/11 17:24:42;;;;;;;12.15;11.50;;;;;;;28.08;100.00;101839.44;1925778;74;24798;-71
2022/08/11 17:27:16;;;;;;;11.83;11.22;;;;;;;28.12;100.00;101841.56;1948173;73;24168;-71
2022/08/11 17:29:49;;;;;;;11.90;11.30;;;;;;;28.10;100.00;101841.95;1947945;73;24254;-71
2022/08/11 17:35:29;;;;;;;11.43;10.93;;;;;;;28.06;100.00;101837.58;1948209;73;24188;-71
2022/08/11 17:38:04;;;;;;;12.82;11.95;;;;;;;28.00;100.00;101840.52;1948211;73;24118;-71
2022/08/11 17:40:38;;;;;;;12.07;11.57;;;;;;;27.85;100.00;101841.48;1948172;73;24619;-71
2022/08/11 17:48:47;;;;;;;12.15;11.50;;;;;;;27.73;100.00;101845.91;1946951;73;24655;-71
2022/08/11 17:59:55;;;;;;;11.40;10.90;;;;;;;27.78;100.00;101842.75;1943266;74;24804;-69
2022/08/11 18:05:18;;;;;;;12.40;11.70;;;;;;;27.97;100.00;101847.60;1981949;72;24709;-71
